sensor_id;sensor_type;location;lat;lon;timestamp;P1;durP1;ratioP1;P2;durP2;ratioP2
13108;SDS011;6620;53.734;11.510;2022-08-25T00:00:23;3.25;;;2.20;;
13108;SDS011;6620;53.734;11.510;2022-08-25T00:02:49;6.85;;;2.65;;
13108;SDS011;6620;53.734;11.510;2022-08-25T00:05:14;4.50;;;2.78;;
13108;SDS011;6620;53.734;11.510;2022-08-25T00:07:39;5.32;;;2.58;;
13108;SDS011;6620;53.734;11.510;2022-08-25T00:10:05;7.75;;;2.80;;
13108;SDS011;6620;53.734;11.510;2022-08-25T00:12:30;8.05;;;3.38;;
13108;SDS011;6620;53.734;11.510;2022-08-25T00:14:56;4.53;;;3.33;;
13108;SDS011;6620;53.734;11.510;2022-08-25T00:17:21;5.85;;;3.80;;
13108;SDS011;6620;53.734;11.510;2022-08-25T00:19:46;6.93;;;4.00;;
13108;SDS011;6620;53.734;11.510;2022-08-25T00:22:12;11.30;;;4.83;;
13108;SDS011;6620;53.734;11.510;2022-08-25T00:24:37;9.52;;;5.28;;
13108;SDS011;6620;53.734;11.510;2022-08-25T00:27:02;10.20;;;5.38;;
13108;SDS011;6620;53.734;11.510;2022-08-25T00:29:28;18.35;;;5.93;;
13108;SDS011;6620;53.734;11.510;2022-08-25T00:31:54;10.52;;;5.65;;
13108;SDS011;6620;53.734;11.510;2022-08-25T00:34:21;12.40;;;5.35;;
13108;SDS011;6620;53.734;11.510;2022-08-25T00:36:47;11.02;;;5.20;;
13108;SDS011;6620;53.734;11.510;2022-08-25T00:39:16;11.45;;;5.95;;
13108;SDS011;6620;53.734;11.510;2022-08-25T00:41:41;9.90;;;5.50;;
13108;SDS011;6620;53.734;11.510;2022-08-25T00:44:08;14.02;;;6.10;;
13108;SDS011;6620;53.734;11.510;2022-08-25T00:46:35;10.38;;;5.53;;
13108;SDS011;6620;53.734;11.510;2022-08-25T00:49:06;15.27;;;5.55;;
13108;SDS011;6620;53.734;11.510;2022-08-25T00:51:34;9.38;;;5.70;;
13108;SDS011;6620;53.734;11.510;2022-08-25T00:54:01;8.88;;;4.88;;
13108;SDS011;6620;53.734;11.510;2022-08-25T00:56:27;12.95;;;4.95;;
13108;SDS011;6620;53.734;11.510;2022-08-25T00:58:53;9.57;;;5.55;;
13108;SDS011;6620;53.734;11.510;2022-08-25T01:01:18;8.10;;;4.82;;
13108;SDS011;6620;53.734;11.510;2022-08-25T01:03:44;6.63;;;4.05;;
13108;SDS011;6620;53.734;11.510;2022-08-25T01:06:09;7.38;;;4.47;;
13108;SDS011;6620;53.734;11.510;2022-08-25T01:08:35;7.97;;;4.15;;
13108;SDS011;6620;53.734;11.510;2022-08-25T01:11:02;6.68;;;4.45;;
13108;SDS011;6620;53.734;11.510;2022-08-25T01:13:33;15.55;;;6.10;;
13108;SDS011;6620;53.734;11.510;2022-08-25T01:16:00;11.88;;;5.43;;
13108;SDS011;6620;53.734;11.510;2022-08-25T01:18:26;7.70;;;4.55;;
13108;SDS011;6620;53.734;11.510;2022-08-25T01:20:54;6.63;;;3.72;;
13108;SDS011;6620;53.734;11.510;2022-08-25T01:23:20;12.98;;;5.10;;
13108;SDS011;6620;53.734;11.510;2022-08-25T01:28:12;7.00;;;4.77;;
13108;SDS011;6620;53.734;11.510;2022-08-25T01:30:37;9.35;;;5.57;;
13108;SDS011;6620;53.734;11.510;2022-08-25T01:33:07;9.05;;;4.95;;
13108;SDS011;6620;53.734;11.510;2022-08-25T01:35:32;8.15;;;4.85;;
13108;SDS011;6620;53.734;11.510;2022-08-25T01:37:58;8.75;;;5.05;;
13108;SDS011;6620;53.734;11.510;2022-08-25T01:40:24;10.60;;;6.35;;
13108;SDS011;6620;53.734;11.510;2022-08-25T01:45:20;9.88;;;5.43;;
13108;SDS011;6620;53.734;11.510;2022-08-25T01:47:46;10.77;;;6.30;;
13108;SDS011;6620;53.734;11.510;2022-08-25T01:50:11;12.23;;;7.20;;
13108;SDS011;6620;53.734;11.510;2022-08-25T01:52:49;11.55;;;5.85;;
13108;SDS011;6620;53.734;11.510;2022-08-25T01:55:15;10.13;;;5.90;;
13108;SDS011;6620;53.734;11.510;2022-08-25T01:57:40;10.20;;;5.10;;
13108;SDS011;6620;53.734;11.510;2022-08-25T02:00:08;8.00;;;5.50;;
13108;SDS011;6620;53.734;11.510;2022-08-25T02:02:34;13.88;;;5.40;;
13108;SDS011;6620;53.734;11.510;2022-08-25T02:04:59;10.45;;;6.18;;
13108;SDS011;6620;53.734;11.510;2022-08-25T02:07:24;12.60;;;5.55;;
13108;SDS011;6620;53.734;11.510;2022-08-25T02:09:49;10.37;;;5.83;;
13108;SDS011;6620;53.734;11.510;2022-08-25T02:12:15;9.02;;;5.20;;
13108;SDS011;6620;53.734;11.510;2022-08-25T02:14:40;7.37;;;5.20;;
13108;SDS011;6620;53.734;11.510;2022-08-25T02:17:05;8.57;;;5.25;;
13108;SDS011;6620;53.734;11.510;2022-08-25T02:19:30;9.07;;;4.53;;
13108;SDS011;6620;53.734;11.510;2022-08-25T02:21:57;9.02;;;4.90;;
13108;SDS011;6620;53.734;11.510;2022-08-25T02:24:22;8.52;;;4.80;;
13108;SDS011;6620;53.734;11.510;2022-08-25T02:26:47;7.32;;;4.72;;
13108;SDS011;6620;53.734;11.510;2022-08-25T02:29:12;6.40;;;4.68;;
13108;SDS011;6620;53.734;11.510;2022-08-25T02:31:38;7.43;;;4.70;;
13108;SDS011;6620;53.734;11.510;2022-08-25T02:34:04;9.88;;;5.18;;
13108;SDS011;6620;53.734;11.510;2022-08-25T02:36:30;9.98;;;5.60;;
13108;SDS011;6620;53.734;11.510;2022-08-25T02:38:56;10.15;;;5.45;;
13108;SDS011;6620;53.734;11.510;2022-08-25T02:41:22;8.98;;;4.15;;
13108;SDS011;6620;53.734;11.510;2022-08-25T02:43:49;7.78;;;4.60;;
13108;SDS011;6620;53.734;11.510;2022-08-25T02:46:15;8.98;;;4.97;;
13108;SDS011;6620;53.734;11.510;2022-08-25T02:48:41;10.23;;;4.78;;
13108;SDS011;6620;53.734;11.510;2022-08-25T02:51:07;9.67;;;4.57;;
13108;SDS011;6620;53.734;11.510;2022-08-25T02:53:33;10.35;;;4.50;;
13108;SDS011;6620;53.734;11.510;2022-08-25T02:55:59;8.73;;;4.22;;
13108;SDS011;6620;53.734;11.510;2022-08-25T02:58:24;8.55;;;4.40;;
13108;SDS011;6620;53.734;11.510;2022-08-25T03:00:49;11.77;;;4.93;;
13108;SDS011;6620;53.734;11.510;2022-08-25T03:03:15;7.25;;;4.60;;
13108;SDS011;6620;53.734;11.510;2022-08-25T03:05:40;7.63;;;3.88;;
13108;SDS011;6620;53.734;11.510;2022-08-25T03:08:05;10.90;;;4.53;;
13108;SDS011;6620;53.734;11.510;2022-08-25T03:10:31;7.82;;;4.50;;
13108;SDS011;6620;53.734;11.510;2022-08-25T03:12:57;10.70;;;5.38;;
13108;SDS011;6620;53.734;11.510;2022-08-25T03:15:22;11.60;;;4.90;;
13108;SDS011;6620;53.734;11.510;2022-08-25T03:17:49;12.77;;;5.43;;
13108;SDS011;6620;53.734;11.510;2022-08-25T03:20:15;9.25;;;4.55;;
13108;SDS011;6620;53.734;11.510;2022-08-25T03:22:40;12.02;;;5.78;;
13108;SDS011;6620;53.734;11.510;2022-08-25T03:25:06;7.70;;;4.70;;
13108;SDS011;6620;53.734;11.510;2022-08-25T03:27:51;10.02;;;4.88;;
13108;SDS011;6620;53.734;11.510;2022-08-25T03:30:16;10.88;;;4.55;;
13108;SDS011;6620;53.734;11.510;2022-08-25T03:32:41;8.45;;;4.60;;
13108;SDS011;6620;53.734;11.510;2022-08-25T03:35:07;8.98;;;4.72;;
13108;SDS011;6620;53.734;11.510;2022-08-25T03:37:33;8.30;;;4.50;;
13108;SDS011;6620;53.734;11.510;2022-08-25T03:39:59;10.57;;;4.97;;
13108;SDS011;6620;53.734;11.510;2022-08-25T03:42:24;8.70;;;4.80;;
13108;SDS011;6620;53.734;11.510;2022-08-25T03:44:50;10.70;;;4.75;;
13108;SDS011;6620;53.734;11.510;2022-08-25T03:47:15;9.38;;;4.00;;
13108;SDS011;6620;53.734;11.510;2022-08-25T03:49:40;8.30;;;4.60;;
13108;SDS011;6620;53.734;11.510;2022-08-25T03:52:06;9.53;;;4.50;;
13108;SDS011;6620;53.734;11.510;2022-08-25T03:54:31;8.57;;;4.80;;
13108;SDS011;6620;53.734;11.510;2022-08-25T03:56:56;8.23;;;4.38;;
13108;SDS011;6620;53.734;11.510;2022-08-25T03:59:21;9.05;;;4.50;;
13108;SDS011;6620;53.734;11.510;2022-08-25T04:01:47;12.10;;;4.60;;
13108;SDS011;6620;53.734;11.510;2022-08-25T04:04:12;11.18;;;4.68;;
13108;SDS011;6620;53.734;11.510;2022-08-25T04:06:38;7.60;;;3.97;;
13108;SDS011;6620;53.734;11.510;2022-08-25T04:09:04;7.25;;;4.75;;
13108;SDS011;6620;53.734;11.510;2022-08-25T04:11:29;7.00;;;4.30;;
13108;SDS011;6620;53.734;11.510;2022-08-25T04:13:55;8.33;;;4.63;;
13108;SDS011;6620;53.734;11.510;2022-08-25T04:16:25;10.15;;;4.50;;
13108;SDS011;6620;53.734;11.510;2022-08-25T04:18:50;11.48;;;5.30;;
13108;SDS011;6620;53.734;11.510;2022-08-25T04:21:16;7.57;;;4.60;;
13108;SDS011;6620;53.734;11.510;2022-08-25T04:23:43;9.40;;;5.10;;
13108;SDS011;6620;53.734;11.510;2022-08-25T04:26:09;13.20;;;4.88;;
13108;SDS011;6620;53.734;11.510;2022-08-25T04:28:35;17.00;;;5.03;;
13108;SDS011;6620;53.734;11.510;2022-08-25T04:31:00;9.02;;;5.28;;
13108;SDS011;6620;53.734;11.510;2022-08-25T04:33:25;7.77;;;4.63;;
13108;SDS011;6620;53.734;11.510;2022-08-25T04:35:50;9.87;;;4.67;;
13108;SDS011;6620;53.734;11.510;2022-08-25T04:38:16;10.37;;;5.33;;
13108;SDS011;6620;53.734;11.510;2022-08-25T04:40:41;9.27;;;5.57;;
13108;SDS011;6620;53.734;11.510;2022-08-25T04:43:06;6.73;;;4.37;;
13108;SDS011;6620;53.734;11.510;2022-08-25T04:45:35;6.53;;;4.45;;
13108;SDS011;6620;53.734;11.510;2022-08-25T04:48:00;13.70;;;5.55;;
13108;SDS011;6620;53.734;11.510;2022-08-25T04:50:25;11.40;;;5.30;;
13108;SDS011;6620;53.734;11.510;2022-08-25T04:52:51;11.88;;;4.90;;
13108;SDS011;6620;53.734;11.510;2022-08-25T04:55:16;14.80;;;6.13;;
13108;SDS011;6620;53.734;11.510;2022-08-25T04:57:42;13.77;;;6.40;;
13108;SDS011;6620;53.734;11.510;2022-08-25T05:00:07;8.25;;;5.03;;
13108;SDS011;6620;53.734;11.510;2022-08-25T05:02:33;11.00;;;5.60;;
13108;SDS011;6620;53.734;11.510;2022-08-25T05:04:58;9.15;;;4.85;;
13108;SDS011;6620;53.734;11.510;2022-08-25T05:07:23;9.02;;;4.88;;
13108;SDS011;6620;53.734;11.510;2022-08-25T05:09:49;13.23;;;5.63;;
13108;SDS011;6620;53.734;11.510;2022-08-25T05:12:14;7.32;;;4.47;;
13108;SDS011;6620;53.734;11.510;2022-08-25T05:14:39;9.30;;;5.57;;
13108;SDS011;6620;53.734;11.510;2022-08-25T05:17:04;8.40;;;4.63;;
13108;SDS011;6620;53.734;11.510;2022-08-25T05:19:30;6.78;;;4.80;;
13108;SDS011;6620;53.734;11.510;2022-08-25T05:21:56;10.70;;;5.57;;
13108;SDS011;6620;53.734;11.510;2022-08-25T05:24:21;13.40;;;4.90;;
13108;SDS011;6620;53.734;11.510;2022-08-25T05:26:46;9.10;;;5.03;;
13108;SDS011;6620;53.734;11.510;2022-08-25T05:29:12;7.78;;;4.78;;
13108;SDS011;6620;53.734;11.510;2022-08-25T05:31:37;9.50;;;4.68;;
13108;SDS011;6620;53.734;11.510;2022-08-25T05:34:06;13.45;;;5.38;;
13108;SDS011;6620;53.734;11.510;2022-08-25T05:36:31;12.70;;;5.10;;
13108;SDS011;6620;53.734;11.510;2022-08-25T05:38:57;9.18;;;5.57;;
13108;SDS011;6620;53.734;11.510;2022-08-25T05:41:24;10.18;;;5.15;;
13108;SDS011;6620;53.734;11.510;2022-08-25T05:43:50;11.73;;;5.45;;
13108;SDS011;6620;53.734;11.510;2022-08-25T05:46:17;12.00;;;5.20;;
13108;SDS011;6620;53.734;11.510;2022-08-25T05:48:42;11.18;;;5.70;;
13108;SDS011;6620;53.734;11.510;2022-08-25T05:51:08;10.80;;;5.25;;
13108;SDS011;6620;53.734;11.510;2022-08-25T05:53:37;11.27;;;5.90;;
13108;SDS011;6620;53.734;11.510;2022-08-25T05:56:03;9.68;;;5.28;;
13108;SDS011;6620;53.734;11.510;2022-08-25T05:58:29;12.75;;;6.13;;
13108;SDS011;6620;53.734;11.510;2022-08-25T06:00:55;6.82;;;5.20;;
13108;SDS011;6620;53.734;11.510;2022-08-25T06:03:21;10.57;;;4.85;;
13108;SDS011;6620;53.734;11.510;2022-08-25T06:05:46;10.60;;;5.00;;
13108;SDS011;6620;53.734;11.510;2022-08-25T06:08:12;9.45;;;4.82;;
13108;SDS011;6620;53.734;11.510;2022-08-25T06:10:37;7.80;;;4.63;;
13108;SDS011;6620;53.734;11.510;2022-08-25T06:13:03;8.88;;;4.65;;
13108;SDS011;6620;53.734;11.510;2022-08-25T06:15:28;8.02;;;4.90;;
13108;SDS011;6620;53.734;11.510;2022-08-25T06:17:54;11.52;;;5.43;;
13108;SDS011;6620;53.734;11.510;2022-08-25T06:20:22;11.15;;;4.32;;
13108;SDS011;6620;53.734;11.510;2022-08-25T06:22:48;8.50;;;4.00;;
13108;SDS011;6620;53.734;11.510;2022-08-25T06:25:15;7.20;;;4.38;;
13108;SDS011;6620;53.734;11.510;2022-08-25T06:27:40;11.43;;;4.63;;
13108;SDS011;6620;53.734;11.510;2022-08-25T06:30:06;6.97;;;4.00;;
13108;SDS011;6620;53.734;11.510;2022-08-25T06:32:33;6.45;;;4.20;;
13108;SDS011;6620;53.734;11.510;2022-08-25T06:34:59;8.10;;;3.92;;
13108;SDS011;6620;53.734;11.510;2022-08-25T06:37:25;7.97;;;4.97;;
13108;SDS011;6620;53.734;11.510;2022-08-25T06:39:50;8.45;;;4.40;;
13108;SDS011;6620;53.734;11.510;2022-08-25T06:42:15;8.33;;;4.60;;
13108;SDS011;6620;53.734;11.510;2022-08-25T06:44:41;7.23;;;4.33;;
13108;SDS011;6620;53.734;11.510;2022-08-25T06:47:06;7.80;;;4.65;;
13108;SDS011;6620;53.734;11.510;2022-08-25T06:49:31;5.28;;;4.60;;
13108;SDS011;6620;53.734;11.510;2022-08-25T06:51:57;8.80;;;4.70;;
13108;SDS011;6620;53.734;11.510;2022-08-25T06:54:22;9.13;;;4.47;;
13108;SDS011;6620;53.734;11.510;2022-08-25T06:56:47;6.47;;;3.83;;
13108;SDS011;6620;53.734;11.510;2022-08-25T06:59:12;10.55;;;4.82;;
13108;SDS011;6620;53.734;11.510;2022-08-25T07:01:37;9.68;;;4.90;;
13108;SDS011;6620;53.734;11.510;2022-08-25T07:04:04;8.15;;;4.15;;
13108;SDS011;6620;53.734;11.510;2022-08-25T07:06:30;6.85;;;4.10;;
13108;SDS011;6620;53.734;11.510;2022-08-25T07:08:56;10.82;;;4.75;;
13108;SDS011;6620;53.734;11.510;2022-08-25T07:11:21;8.68;;;4.25;;
13108;SDS011;6620;53.734;11.510;2022-08-25T07:13:47;11.25;;;4.93;;
13108;SDS011;6620;53.734;11.510;2022-08-25T07:16:13;6.57;;;4.25;;
13108;SDS011;6620;53.734;11.510;2022-08-25T07:18:41;8.60;;;4.18;;
13108;SDS011;6620;53.734;11.510;2022-08-25T07:21:07;10.52;;;4.43;;
13108;SDS011;6620;53.734;11.510;2022-08-25T07:23:32;9.70;;;4.30;;
13108;SDS011;6620;53.734;11.510;2022-08-25T07:26:05;7.00;;;4.28;;
13108;SDS011;6620;53.734;11.510;2022-08-25T07:28:31;10.25;;;3.85;;
13108;SDS011;6620;53.734;11.510;2022-08-25T07:30:57;6.28;;;3.42;;
13108;SDS011;6620;53.734;11.510;2022-08-25T07:33:24;10.93;;;4.28;;
13108;SDS011;6620;53.734;11.510;2022-08-25T07:35:50;7.77;;;4.27;;
13108;SDS011;6620;53.734;11.510;2022-08-25T07:38:15;8.43;;;4.30;;
13108;SDS011;6620;53.734;11.510;2022-08-25T07:40:41;9.52;;;4.28;;
13108;SDS011;6620;53.734;11.510;2022-08-25T07:43:07;9.70;;;3.80;;
13108;SDS011;6620;53.734;11.510;2022-08-25T07:45:33;7.38;;;4.20;;
13108;SDS011;6620;53.734;11.510;2022-08-25T07:48:00;9.15;;;3.72;;
13108;SDS011;6620;53.734;11.510;2022-08-25T07:50:25;5.75;;;4.00;;
13108;SDS011;6620;53.734;11.510;2022-08-25T07:52:51;8.48;;;4.22;;
13108;SDS011;6620;53.734;11.510;2022-08-25T07:55:16;11.43;;;4.10;;
13108;SDS011;6620;53.734;11.510;2022-08-25T07:57:41;4.77;;;3.53;;
13108;SDS011;6620;53.734;11.510;2022-08-25T08:00:07;10.93;;;4.45;;
13108;SDS011;6620;53.734;11.510;2022-08-25T08:02:34;5.47;;;3.47;;
13108;SDS011;6620;53.734;11.510;2022-08-25T08:05:01;9.15;;;4.10;;
13108;SDS011;6620;53.734;11.510;2022-08-25T08:07:26;8.77;;;3.92;;
13108;SDS011;6620;53.734;11.510;2022-08-25T08:09:53;6.65;;;4.07;;
13108;SDS011;6620;53.734;11.510;2022-08-25T08:12:23;11.73;;;3.78;;
13108;SDS011;6620;53.734;11.510;2022-08-25T08:14:48;7.43;;;4.10;;
13108;SDS011;6620;53.734;11.510;2022-08-25T08:17:13;10.65;;;3.78;;
13108;SDS011;6620;53.734;11.510;2022-08-25T08:19:39;6.03;;;3.78;;
13108;SDS011;6620;53.734;11.510;2022-08-25T08:22:05;8.98;;;3.80;;
13108;SDS011;6620;53.734;11.510;2022-08-25T08:24:31;7.90;;;3.72;;
13108;SDS011;6620;53.734;11.510;2022-08-25T08:26:58;4.97;;;3.45;;
13108;SDS011;6620;53.734;11.510;2022-08-25T08:29:23;5.15;;;3.25;;
13108;SDS011;6620;53.734;11.510;2022-08-25T08:31:49;4.87;;;3.33;;
13108;SDS011;6620;53.734;11.510;2022-08-25T08:34:14;4.85;;;3.30;;
13108;SDS011;6620;53.734;11.510;2022-08-25T08:36:39;9.45;;;3.83;;
13108;SDS011;6620;53.734;11.510;2022-08-25T08:39:05;8.77;;;3.72;;
13108;SDS011;6620;53.734;11.510;2022-08-25T08:41:35;6.03;;;3.20;;
13108;SDS011;6620;53.734;11.510;2022-08-25T08:44:27;4.75;;;3.65;;
13108;SDS011;6620;53.734;11.510;2022-08-25T08:49:24;6.67;;;3.23;;
13108;SDS011;6620;53.734;11.510;2022-08-25T08:51:55;12.55;;;4.40;;
13108;SDS011;6620;53.734;11.510;2022-08-25T08:54:22;10.10;;;3.40;;
13108;SDS011;6620;53.734;11.510;2022-08-25T08:56:49;8.80;;;3.03;;
13108;SDS011;6620;53.734;11.510;2022-08-25T08:59:22;10.10;;;3.78;;
13108;SDS011;6620;53.734;11.510;2022-08-25T09:01:54;8.93;;;3.50;;
13108;SDS011;6620;53.734;11.510;2022-08-25T09:04:28;5.65;;;3.22;;
13108;SDS011;6620;53.734;11.510;2022-08-25T09:06:56;9.15;;;3.28;;
13108;SDS011;6620;53.734;11.510;2022-08-25T09:09:30;7.22;;;3.17;;
13108;SDS011;6620;53.734;11.510;2022-08-25T09:12:02;6.80;;;3.30;;
13108;SDS011;6620;53.734;11.510;2022-08-25T09:16:54;6.10;;;2.95;;
13108;SDS011;6620;53.734;11.510;2022-08-25T09:32:31;14.57;;;3.92;;
13108;SDS011;6620;53.734;11.510;2022-08-25T09:34:58;6.55;;;3.05;;
13108;SDS011;6620;53.734;11.510;2022-08-25T09:37:24;8.32;;;2.83;;
13108;SDS011;6620;53.734;11.510;2022-08-25T09:39:49;7.60;;;3.30;;
13108;SDS011;6620;53.734;11.510;2022-08-25T09:42:15;9.97;;;3.27;;
13108;SDS011;6620;53.734;11.510;2022-08-25T09:44:42;8.65;;;2.53;;
13108;SDS011;6620;53.734;11.510;2022-08-25T09:54:51;6.93;;;3.05;;
13108;SDS011;6620;53.734;11.510;2022-08-25T09:57:33;8.68;;;2.83;;
13108;SDS011;6620;53.734;11.510;2022-08-25T10:02:37;11.35;;;2.97;;
13108;SDS011;6620;53.734;11.510;2022-08-25T10:05:16;5.95;;;2.60;;
13108;SDS011;6620;53.734;11.510;2022-08-25T10:07:47;6.03;;;2.78;;
13108;SDS011;6620;53.734;11.510;2022-08-25T10:10:56;12.02;;;3.30;;
13108;SDS011;6620;53.734;11.510;2022-08-25T10:13:03;11.48;;;3.88;;
13108;SDS011;6620;53.734;11.510;2022-08-25T10:15:36;7.57;;;3.30;;
13108;SDS011;6620;53.734;11.510;2022-08-25T10:18:18;6.10;;;2.88;;
13108;SDS011;6620;53.734;11.510;2022-08-25T10:20:43;6.75;;;2.70;;
13108;SDS011;6620;53.734;11.510;2022-08-25T10:23:24;6.18;;;2.80;;
13108;SDS011;6620;53.734;11.510;2022-08-25T10:25:51;5.28;;;2.70;;
13108;SDS011;6620;53.734;11.510;2022-08-25T10:28:23;8.90;;;3.78;;
13108;SDS011;6620;53.734;11.510;2022-08-25T10:36:10;5.40;;;2.65;;
13108;SDS011;6620;53.734;11.510;2022-08-25T10:38:57;8.73;;;2.95;;
13108;SDS011;6620;53.734;11.510;2022-08-25T10:44:09;6.82;;;3.08;;
13108;SDS011;6620;53.734;11.510;2022-08-25T10:49:39;12.57;;;3.85;;
13108;SDS011;6620;53.734;11.510;2022-08-25T10:57:54;5.15;;;2.63;;
13108;SDS011;6620;53.734;11.510;2022-08-25T11:00:21;4.30;;;2.72;;
13108;SDS011;6620;53.734;11.510;2022-08-25T11:05:25;10.52;;;3.55;;
13108;SDS011;6620;53.734;11.510;2022-08-25T11:07:58;11.65;;;4.20;;
13108;SDS011;6620;53.734;11.510;2022-08-25T11:10:50;10.70;;;3.63;;
13108;SDS011;6620;53.734;11.510;2022-08-25T11:13:14;10.60;;;3.53;;
13108;SDS011;6620;53.734;11.510;2022-08-25T11:16:02;9.13;;;3.33;;
13108;SDS011;6620;53.734;11.510;2022-08-25T11:18:26;5.03;;;2.80;;
13108;SDS011;6620;53.734;11.510;2022-08-25T11:21:00;6.35;;;3.03;;
13108;SDS011;6620;53.734;11.510;2022-08-25T11:23:34;12.88;;;4.38;;
13108;SDS011;6620;53.734;11.510;2022-08-25T11:26:03;8.70;;;3.05;;
13108;SDS011;6620;53.734;11.510;2022-08-25T11:28:46;8.60;;;2.67;;
13108;SDS011;6620;53.734;11.510;2022-08-25T11:31:13;9.63;;;2.70;;
13108;SDS011;6620;53.734;11.510;2022-08-25T11:33:39;10.52;;;4.18;;
13108;SDS011;6620;53.734;11.510;2022-08-25T11:36:18;9.10;;;2.93;;
13108;SDS011;6620;53.734;11.510;2022-08-25T11:49:21;10.48;;;2.88;;
13108;SDS011;6620;53.734;11.510;2022-08-25T11:51:48;9.65;;;3.10;;
13108;SDS011;6620;53.734;11.510;2022-08-25T11:56:39;8.38;;;3.00;;
13108;SDS011;6620;53.734;11.510;2022-08-25T11:59:06;9.30;;;3.13;;
13108;SDS011;6620;53.734;11.510;2022-08-25T12:09:31;9.07;;;2.67;;
13108;SDS011;6620;53.734;11.510;2022-08-25T12:11:57;7.78;;;2.78;;
13108;SDS011;6620;53.734;11.510;2022-08-25T12:21:51;7.88;;;3.05;;
13108;SDS011;6620;53.734;11.510;2022-08-25T12:27:01;7.18;;;2.53;;
13108;SDS011;6620;53.734;11.510;2022-08-25T12:37:23;8.48;;;2.65;;
13108;SDS011;6620;53.734;11.510;2022-08-25T12:42:31;10.02;;;2.83;;
13108;SDS011;6620;53.734;11.510;2022-08-25T12:47:33;7.45;;;2.50;;
13108;SDS011;6620;53.734;11.510;2022-08-25T12:52:42;7.75;;;2.60;;
13108;SDS011;6620;53.734;11.510;2022-08-25T12:55:08;5.03;;;2.05;;
13108;SDS011;6620;53.734;11.510;2022-08-25T12:57:41;6.53;;;2.63;;
13108;SDS011;6620;53.734;11.510;2022-08-25T13:05:46;4.30;;;2.13;;
13108;SDS011;6620;53.734;11.510;2022-08-25T13:15:41;4.45;;;2.05;;
13108;SDS011;6620;53.734;11.510;2022-08-25T13:20:58;7.15;;;2.50;;
13108;SDS011;6620;53.734;11.510;2022-08-25T13:23:26;8.57;;;2.58;;
13108;SDS011;6620;53.734;11.510;2022-08-25T13:25:51;6.07;;;2.30;;
13108;SDS011;6620;53.734;11.510;2022-08-25T13:28:39;4.82;;;2.00;;
13108;SDS011;6620;53.734;11.510;2022-08-25T13:33:28;4.40;;;1.90;;
13108;SDS011;6620;53.734;11.510;2022-08-25T13:35:55;8.75;;;2.58;;
13108;SDS011;6620;53.734;11.510;2022-08-25T13:38:40;9.35;;;2.67;;
13108;SDS011;6620;53.734;11.510;2022-08-25T13:41:06;5.47;;;2.30;;
13108;SDS011;6620;53.734;11.510;2022-08-25T13:43:31;4.55;;;2.13;;
13108;SDS011;6620;53.734;11.510;2022-08-25T13:45:56;6.25;;;2.90;;
13108;SDS011;6620;53.734;11.510;2022-08-25T13:48:32;5.40;;;2.35;;
13108;SDS011;6620;53.734;11.510;2022-08-25T13:51:05;7.05;;;2.22;;
13108;SDS011;6620;53.734;11.510;2022-08-25T13:53:32;4.90;;;2.50;;
13108;SDS011;6620;53.734;11.510;2022-08-25T13:55:58;7.75;;;3.40;;
13108;SDS011;6620;53.734;11.510;2022-08-25T13:58:25;6.07;;;2.30;;
13108;SDS011;6620;53.734;11.510;2022-08-25T14:03:53;7.20;;;2.38;;
13108;SDS011;6620;53.734;11.510;2022-08-25T14:06:21;5.55;;;2.30;;
13108;SDS011;6620;53.734;11.510;2022-08-25T14:08:48;9.63;;;2.30;;
13108;SDS011;6620;53.734;11.510;2022-08-25T14:11:31;8.10;;;2.67;;
13108;SDS011;6620;53.734;11.510;2022-08-25T14:14:07;5.03;;;2.47;;
13108;SDS011;6620;53.734;11.510;2022-08-25T14:16:36;7.63;;;2.73;;
13108;SDS011;6620;53.734;11.510;2022-08-25T14:19:01;8.10;;;2.38;;
13108;SDS011;6620;53.734;11.510;2022-08-25T14:21:29;6.78;;;2.20;;
13108;SDS011;6620;53.734;11.510;2022-08-25T14:23:55;9.15;;;2.67;;
13108;SDS011;6620;53.734;11.510;2022-08-25T14:26:21;4.47;;;2.53;;
13108;SDS011;6620;53.734;11.510;2022-08-25T14:28:46;6.47;;;2.50;;
13108;SDS011;6620;53.734;11.510;2022-08-25T14:31:17;6.82;;;2.47;;
13108;SDS011;6620;53.734;11.510;2022-08-25T14:33:53;12.13;;;2.90;;
13108;SDS011;6620;53.734;11.510;2022-08-25T14:36:19;11.02;;;3.03;;
13108;SDS011;6620;53.734;11.510;2022-08-25T14:38:44;7.55;;;3.03;;
13108;SDS011;6620;53.734;11.510;2022-08-25T14:41:10;6.87;;;2.87;;
13108;SDS011;6620;53.734;11.510;2022-08-25T14:43:35;6.27;;;2.47;;
13108;SDS011;6620;53.734;11.510;2022-08-25T14:46:02;5.43;;;2.30;;
13108;SDS011;6620;53.734;11.510;2022-08-25T14:48:34;6.50;;;2.97;;
13108;SDS011;6620;53.734;11.510;2022-08-25T14:51:03;5.35;;;3.08;;
13108;SDS011;6620;53.734;11.510;2022-08-25T14:53:28;4.00;;;2.40;;
13108;SDS011;6620;53.734;11.510;2022-08-25T14:55:54;10.98;;;2.53;;
13108;SDS011;6620;53.734;11.510;2022-08-25T14:58:20;5.82;;;2.53;;
13108;SDS011;6620;53.734;11.510;2022-08-25T15:00:45;8.15;;;3.17;;
13108;SDS011;6620;53.734;11.510;2022-08-25T15:03:12;10.48;;;2.92;;
13108;SDS011;6620;53.734;11.510;2022-08-25T15:05:39;9.38;;;2.85;;
13108;SDS011;6620;53.734;11.510;2022-08-25T15:08:04;9.68;;;2.90;;
13108;SDS011;6620;53.734;11.510;2022-08-25T15:10:48;6.88;;;3.40;;
13108;SDS011;6620;53.734;11.510;2022-08-25T15:13:13;13.50;;;3.07;;
13108;SDS011;6620;53.734;11.510;2022-08-25T15:15:39;9.50;;;2.80;;
13108;SDS011;6620;53.734;11.510;2022-08-25T15:18:06;8.98;;;2.95;;
13108;SDS011;6620;53.734;11.510;2022-08-25T15:20:31;11.13;;;2.65;;
13108;SDS011;6620;53.734;11.510;2022-08-25T15:22:57;9.38;;;2.72;;
13108;SDS011;6620;53.734;11.510;2022-08-25T15:25:22;12.20;;;2.50;;
13108;SDS011;6620;53.734;11.510;2022-08-25T15:27:48;8.60;;;3.35;;
13108;SDS011;6620;53.734;11.510;2022-08-25T15:30:13;8.35;;;2.83;;
13108;SDS011;6620;53.734;11.510;2022-08-25T15:32:39;8.10;;;2.97;;
13108;SDS011;6620;53.734;11.510;2022-08-25T15:35:05;11.00;;;3.05;;
13108;SDS011;6620;53.734;11.510;2022-08-25T15:37:30;7.82;;;3.00;;
13108;SDS011;6620;53.734;11.510;2022-08-25T15:39:56;4.80;;;2.70;;
13108;SDS011;6620;53.734;11.510;2022-08-25T15:42:21;7.57;;;2.90;;
13108;SDS011;6620;53.734;11.510;2022-08-25T15:44:46;8.98;;;3.22;;
13108;SDS011;6620;53.734;11.510;2022-08-25T15:47:11;9.00;;;3.13;;
13108;SDS011;6620;53.734;11.510;2022-08-25T15:49:37;14.60;;;3.33;;
13108;SDS011;6620;53.734;11.510;2022-08-25T15:52:02;5.88;;;2.78;;
13108;SDS011;6620;53.734;11.510;2022-08-25T15:54:28;7.85;;;3.10;;
13108;SDS011;6620;53.734;11.510;2022-08-25T15:56:54;8.55;;;3.05;;
13108;SDS011;6620;53.734;11.510;2022-08-25T15:59:20;6.63;;;3.33;;
13108;SDS011;6620;53.734;11.510;2022-08-25T16:01:45;10.27;;;3.72;;
13108;SDS011;6620;53.734;11.510;2022-08-25T16:04:10;5.97;;;2.90;;
13108;SDS011;6620;53.734;11.510;2022-08-25T16:06:36;10.85;;;2.50;;
13108;SDS011;6620;53.734;11.510;2022-08-25T16:09:03;10.82;;;2.90;;
13108;SDS011;6620;53.734;11.510;2022-08-25T16:11:29;7.85;;;2.90;;
13108;SDS011;6620;53.734;11.510;2022-08-25T16:13:54;8.57;;;3.13;;
13108;SDS011;6620;53.734;11.510;2022-08-25T16:16:21;6.38;;;3.13;;
13108;SDS011;6620;53.734;11.510;2022-08-25T16:18:46;9.75;;;3.42;;
13108;SDS011;6620;53.734;11.510;2022-08-25T16:21:13;9.55;;;2.83;;
13108;SDS011;6620;53.734;11.510;2022-08-25T16:23:39;7.60;;;2.75;;
13108;SDS011;6620;53.734;11.510;2022-08-25T16:26:04;7.07;;;2.85;;
13108;SDS011;6620;53.734;11.510;2022-08-25T16:28:31;9.77;;;2.72;;
13108;SDS011;6620;53.734;11.510;2022-08-25T16:30:56;5.57;;;3.53;;
13108;SDS011;6620;53.734;11.510;2022-08-25T16:33:21;8.73;;;2.87;;
13108;SDS011;6620;53.734;11.510;2022-08-25T16:35:46;7.03;;;3.08;;
13108;SDS011;6620;53.734;11.510;2022-08-25T16:38:12;7.53;;;2.70;;
13108;SDS011;6620;53.734;11.510;2022-08-25T16:40:38;4.38;;;2.92;;
13108;SDS011;6620;53.734;11.510;2022-08-25T16:43:04;5.85;;;3.17;;